Historique des mesures à Cassis (13260), France
Quotidien Résumé Janvier 3, 2018 Unités:  US    Métrique   Métrique/US
« Précédent (Jour)
Suivant (Jour) »
Quotidien Hebdomadaire Mensuel Annuel Période au choix
  Maximum: Minimum: Moyenne:
Température: 32 °F 52.9 °F 57.6 °F
Point de rosée: 32 °F 42.3 °F 46 °F
Humidité: Humidity % 52 % 62 %
Vitesse du vent: WindSpeedKMH mph 0.0 mph 1.1 mph
Rafales: WindSpeedGustKMH mph - -
Vent:- - NW
Pression: 0 in 29.9 in -
Précipitations: 0 in    
Historical Graphs
 
 
Mesures pour : Janvier 3, 2018
Heure Temperature Point de rosée Pression Vent Vitesse du vent Rafales Humidité Pluie (par heure) Conditions
32 °F 32 °F 0 in Calm     Humidity % 0 in SoftwareType W/m2
00:10 53.4 °F 42.3 °F 30 in Calm     66 % 0 in open2300-1.11 W/m2
01:10 53.8 °F 42.3 °F 30 in Calm     65 % 0 in open2300-1.11 W/m2
02:10 52.9 °F 42.3 °F 30 in Calm     67 % 0 in open2300-1.11 W/m2
03:10 52.9 °F 43.3 °F 30 in Calm     70 % 0 in open2300-1.11 W/m2
05:10 55.4 °F 47.7 °F 30 in Calm     75 % 0 in open2300-1.11 W/m2
06:10 55.6 °F 47.7 °F 30 in Calm     75 % 0 in open2300-1.11 W/m2
07:10 55.9 °F 48.7 °F 30 in Calm     77 % 0 in open2300-1.11 W/m2
08:10 56.1 °F 50.7 °F 29.9 in Calm     82 % 0 in open2300-1.11 W/m2
09:10 58.8 °F 53.1 °F 29.9 in WNW 7.2 mph 7.2 mph 81 % 0 in open2300-1.11 W/m2
11:10 64.2 °F 55 °F 29.9 in Calm     72 % 0 in open2300-1.11 W/m2
12:10 65.5 °F 54.1 °F 29.9 in NW 6.1 mph 7.2 mph 67 % 0 in open2300-1.11 W/m2
13:10 62.4 °F 52.2 °F 29.9 in WNW 5.5 mph 5.5 mph 69 % 0 in open2300-1.11 W/m2
14:10 63.7 °F 48 °F 29.9 in NNW 6.1 mph 17.7 mph 57 % 0 in open2300-1.11 W/m2
16:10 62.1 °F 46 °F 29.9 in Calm   8.2 mph 56 % 0 in open2300-1.11 W/m2
17:10 61.9 °F 44.1 °F 29.9 in Calm     52 % 0 in open2300-1.11 W/m2
18:10 61 °F 45.7 °F 29.9 in Calm   12.2 mph 57 % 0 in open2300-1.11 W/m2
19:10 60.4 °F 44.6 °F 29.9 in Calm     56 % 0 in open2300-1.11 W/m2
20:10 60.1 °F 43.3 °F 29.9 in Calm   2.9 mph 54 % 0 in open2300-1.11 W/m2
21:10 59.7 °F 43 °F 30 in Calm     54 % 0 in open2300-1.11 W/m2
22:10 59.4 °F 43.2 °F 30 in Calm     55 % 0 in open2300-1.11 W/m2
23:10 58.8 °F 42.6 °F 30 in Calm   1.4 mph 55 % 0 in open2300-1.11 W/m2
Observations météo à CASSIS
WU-History script by Weather Underground - 1 mb